sensor_id;sensor_type;location;lat;lon;timestamp;temperature;humidity
19363;DHT22;9817;50.80926400;5.16316200;2022-11-20T00:00:06;5.90;99.90
19363;DHT22;9817;50.80926400;5.16316200;2022-11-20T00:02:32;6.00;99.90
19363;DHT22;9817;50.80926400;5.16316200;2022-11-20T00:04:58;6.00;99.90
19363;DHT22;9817;50.80926400;5.16316200;2022-11-20T00:07:23;6.10;99.90
19363;DHT22;9817;50.80926400;5.16316200;2022-11-20T00:09:49;6.00;99.90
19363;DHT22;9817;50.80926400;5.16316200;2022-11-20T00:12:14;6.10;99.90
19363;DHT22;9817;50.80926400;5.16316200;2022-11-20T00:14:40;6.20;99.90
19363;DHT22;9817;50.80926400;5.16316200;2022-11-20T00:17:06;6.10;99.90
19363;DHT22;9817;50.80926400;5.16316200;2022-11-20T00:19:32;6.10;99.90
19363;DHT22;9817;50.80926400;5.16316200;2022-11-20T00:21:58;6.20;99.90
19363;DHT22;9817;50.80926400;5.16316200;2022-11-20T00:24:23;6.20;99.90
19363;DHT22;9817;50.80926400;5.16316200;2022-11-20T00:26:49;6.30;99.90
19363;DHT22;9817;50.80926400;5.16316200;2022-11-20T00:29:14;6.20;99.90
19363;DHT22;9817;50.80926400;5.16316200;2022-11-20T00:31:40;6.30;99.90
19363;DHT22;9817;50.80926400;5.16316200;2022-11-20T00:34:05;6.30;99.90
19363;DHT22;9817;50.80926400;5.16316200;2022-11-20T00:36:33;6.30;99.90
19363;DHT22;9817;50.80926400;5.16316200;2022-11-20T00:38:59;6.40;99.90
19363;DHT22;9817;50.80926400;5.16316200;2022-11-20T00:41:26;6.40;99.90
19363;DHT22;9817;50.80926400;5.16316200;2022-11-20T00:43:53;6.40;99.90
19363;DHT22;9817;50.80926400;5.16316200;2022-11-20T00:46:21;6.40;99.90
19363;DHT22;9817;50.80926400;5.16316200;2022-11-20T00:48:48;6.40;99.90
19363;DHT22;9817;50.80926400;5.16316200;2022-11-20T00:51:16;6.50;99.90
19363;DHT22;9817;50.80926400;5.16316200;2022-11-20T00:53:42;6.60;99.90
19363;DHT22;9817;50.80926400;5.16316200;2022-11-20T00:56:10;6.60;99.90
19363;DHT22;9817;50.80926400;5.16316200;2022-11-20T00:58:38;6.60;99.90
19363;DHT22;9817;50.80926400;5.16316200;2022-11-20T01:01:18;6.60;99.90
19363;DHT22;9817;50.80926400;5.16316200;2022-11-20T01:03:47;6.60;99.90
19363;DHT22;9817;50.80926400;5.16316200;2022-11-20T01:06:15;6.60;99.90
19363;DHT22;9817;50.80926400;5.16316200;2022-11-20T01:08:42;6.60;99.90
19363;DHT22;9817;50.80926400;5.16316200;2022-11-20T01:11:14;6.50;99.90
19363;DHT22;9817;50.80926400;5.16316200;2022-11-20T01:13:40;6.60;99.90
19363;DHT22;9817;50.80926400;5.16316200;2022-11-20T01:16:09;6.60;99.90
19363;DHT22;9817;50.80926400;5.16316200;2022-11-20T01:18:35;6.60;99.90
19363;DHT22;9817;50.80926400;5.16316200;2022-11-20T01:21:10;6.60;99.90
19363;DHT22;9817;50.80926400;5.16316200;2022-11-20T01:23:39;6.70;99.90
19363;DHT22;9817;50.80926400;5.16316200;2022-11-20T01:26:07;6.60;99.90
19363;DHT22;9817;50.80926400;5.16316200;2022-11-20T01:28:34;6.60;99.90
19363;DHT22;9817;50.80926400;5.16316200;2022-11-20T01:31:01;6.60;99.90
19363;DHT22;9817;50.80926400;5.16316200;2022-11-20T01:33:27;6.50;99.90
19363;DHT22;9817;50.80926400;5.16316200;2022-11-20T01:35:53;6.50;99.90
19363;DHT22;9817;50.80926400;5.16316200;2022-11-20T01:38:19;6.50;99.90
19363;DHT22;9817;50.80926400;5.16316200;2022-11-20T01:40:54;6.40;99.90
19363;DHT22;9817;50.80926400;5.16316200;2022-11-20T01:43:21;6.50;99.90
19363;DHT22;9817;50.80926400;5.16316200;2022-11-20T01:53:54;6.40;99.90
19363;DHT22;9817;50.80926400;5.16316200;2022-11-20T01:56:22;6.50;99.90
19363;DHT22;9817;50.80926400;5.16316200;2022-11-20T01:58:51;6.50;99.90
19363;DHT22;9817;50.80926400;5.16316200;2022-11-20T02:01:20;6.50;99.90
19363;DHT22;9817;50.80926400;5.16316200;2022-11-20T02:03:46;6.40;99.90
19363;DHT22;9817;50.80926400;5.16316200;2022-11-20T02:06:14;6.40;99.90
19363;DHT22;9817;50.80926400;5.16316200;2022-11-20T02:08:42;6.50;99.90
19363;DHT22;9817;50.80926400;5.16316200;2022-11-20T02:11:08;6.50;99.90
19363;DHT22;9817;50.80926400;5.16316200;2022-11-20T02:13:34;6.50;99.90
19363;DHT22;9817;50.80926400;5.16316200;2022-11-20T02:16:35;6.50;99.90
19363;DHT22;9817;50.80926400;5.16316200;2022-11-20T02:19:04;6.50;99.90
19363;DHT22;9817;50.80926400;5.16316200;2022-11-20T02:24:17;6.50;99.90
19363;DHT22;9817;50.80926400;5.16316200;2022-11-20T02:27:01;6.40;99.90
19363;DHT22;9817;50.80926400;5.16316200;2022-11-20T02:32:27;6.40;99.90
19363;DHT22;9817;50.80926400;5.16316200;2022-11-20T02:34:53;6.50;99.90
19363;DHT22;9817;50.80926400;5.16316200;2022-11-20T02:37:20;6.50;99.90
19363;DHT22;9817;50.80926400;5.16316200;2022-11-20T02:39:50;6.40;99.90
19363;DHT22;9817;50.80926400;5.16316200;2022-11-20T02:42:16;6.40;99.90
19363;DHT22;9817;50.80926400;5.16316200;2022-11-20T02:44:42;6.40;99.90
19363;DHT22;9817;50.80926400;5.16316200;2022-11-20T02:47:08;6.40;99.90
19363;DHT22;9817;50.80926400;5.16316200;2022-11-20T02:49:34;6.40;99.90
19363;DHT22;9817;50.80926400;5.16316200;2022-11-20T02:52:00;6.30;99.90
19363;DHT22;9817;50.80926400;5.16316200;2022-11-20T02:54:26;6.30;99.90
19363;DHT22;9817;50.80926400;5.16316200;2022-11-20T02:56:52;6.40;99.90
19363;DHT22;9817;50.80926400;5.16316200;2022-11-20T02:59:17;6.40;99.90
19363;DHT22;9817;50.80926400;5.16316200;2022-11-20T03:01:43;6.50;99.90
19363;DHT22;9817;50.80926400;5.16316200;2022-11-20T03:04:09;6.50;99.90
19363;DHT22;9817;50.80926400;5.16316200;2022-11-20T03:06:34;6.40;99.90
19363;DHT22;9817;50.80926400;5.16316200;2022-11-20T03:09:00;6.20;99.90
19363;DHT22;9817;50.80926400;5.16316200;2022-11-20T03:11:26;6.20;99.90
19363;DHT22;9817;50.80926400;5.16316200;2022-11-20T03:13:51;6.30;99.90
19363;DHT22;9817;50.80926400;5.16316200;2022-11-20T03:16:19;6.20;99.90
19363;DHT22;9817;50.80926400;5.16316200;2022-11-20T03:18:45;6.20;99.90
19363;DHT22;9817;50.80926400;5.16316200;2022-11-20T03:21:12;6.20;99.90
19363;DHT22;9817;50.80926400;5.16316200;2022-11-20T03:23:39;6.20;99.90
19363;DHT22;9817;50.80926400;5.16316200;2022-11-20T03:26:09;6.30;99.90
19363;DHT22;9817;50.80926400;5.16316200;2022-11-20T03:28:36;6.20;99.90
19363;DHT22;9817;50.80926400;5.16316200;2022-11-20T03:31:15;6.20;99.90
19363;DHT22;9817;50.80926400;5.16316200;2022-11-20T03:33:41;6.20;99.90
19363;DHT22;9817;50.80926400;5.16316200;2022-11-20T03:36:12;6.20;99.90
19363;DHT22;9817;50.80926400;5.16316200;2022-11-20T03:38:38;6.20;99.90
19363;DHT22;9817;50.80926400;5.16316200;2022-11-20T03:41:10;6.20;99.90
19363;DHT22;9817;50.80926400;5.16316200;2022-11-20T03:43:36;6.40;99.90
19363;DHT22;9817;50.80926400;5.16316200;2022-11-20T03:46:03;6.40;99.90
19363;DHT22;9817;50.80926400;5.16316200;2022-11-20T03:48:30;6.40;99.90
19363;DHT22;9817;50.80926400;5.16316200;2022-11-20T03:51:14;6.30;99.90
19363;DHT22;9817;50.80926400;5.16316200;2022-11-20T03:53:41;6.40;99.90
19363;DHT22;9817;50.80926400;5.16316200;2022-11-20T03:56:08;6.40;99.90
19363;DHT22;9817;50.80926400;5.16316200;2022-11-20T03:58:35;6.40;99.90
19363;DHT22;9817;50.80926400;5.16316200;2022-11-20T04:01:13;6.30;99.90
19363;DHT22;9817;50.80926400;5.16316200;2022-11-20T04:03:40;6.40;99.90
19363;DHT22;9817;50.80926400;5.16316200;2022-11-20T04:06:21;6.30;99.90
19363;DHT22;9817;50.80926400;5.16316200;2022-11-20T04:08:47;6.20;99.90
19363;DHT22;9817;50.80926400;5.16316200;2022-11-20T04:11:18;6.20;99.90
19363;DHT22;9817;50.80926400;5.16316200;2022-11-20T04:13:52;6.30;99.90
19363;DHT22;9817;50.80926400;5.16316200;2022-11-20T04:16:19;6.30;99.90
19363;DHT22;9817;50.80926400;5.16316200;2022-11-20T04:18:44;6.40;99.90
19363;DHT22;9817;50.80926400;5.16316200;2022-11-20T04:21:10;6.40;99.90
19363;DHT22;9817;50.80926400;5.16316200;2022-11-20T04:23:36;6.40;99.90
19363;DHT22;9817;50.80926400;5.16316200;2022-11-20T04:26:12;6.40;99.90
19363;DHT22;9817;50.80926400;5.16316200;2022-11-20T04:28:38;6.50;99.90
19363;DHT22;9817;50.80926400;5.16316200;2022-11-20T04:31:06;6.40;99.90
19363;DHT22;9817;50.80926400;5.16316200;2022-11-20T04:33:32;6.30;99.90
19363;DHT22;9817;50.80926400;5.16316200;2022-11-20T04:36:06;6.30;99.90
19363;DHT22;9817;50.80926400;5.16316200;2022-11-20T04:38:32;6.40;99.90
19363;DHT22;9817;50.80926400;5.16316200;2022-11-20T04:40:59;6.40;99.90
19363;DHT22;9817;50.80926400;5.16316200;2022-11-20T04:43:25;6.50;99.90
19363;DHT22;9817;50.80926400;5.16316200;2022-11-20T04:45:55;6.60;99.90
19363;DHT22;9817;50.80926400;5.16316200;2022-11-20T04:48:21;6.30;99.90
19363;DHT22;9817;50.80926400;5.16316200;2022-11-20T04:50:47;6.30;99.90
19363;DHT22;9817;50.80926400;5.16316200;2022-11-20T04:53:13;6.40;99.90
19363;DHT22;9817;50.80926400;5.16316200;2022-11-20T04:55:39;6.40;99.90
19363;DHT22;9817;50.80926400;5.16316200;2022-11-20T04:58:04;6.30;99.90
19363;DHT22;9817;50.80926400;5.16316200;2022-11-20T05:00:30;6.40;99.90
19363;DHT22;9817;50.80926400;5.16316200;2022-11-20T05:02:56;6.30;99.90
19363;DHT22;9817;50.80926400;5.16316200;2022-11-20T05:05:21;6.30;99.90
19363;DHT22;9817;50.80926400;5.16316200;2022-11-20T05:07:47;6.40;99.90
19363;DHT22;9817;50.80926400;5.16316200;2022-11-20T05:10:13;6.40;99.90
19363;DHT22;9817;50.80926400;5.16316200;2022-11-20T05:12:38;6.40;99.90
19363;DHT22;9817;50.80926400;5.16316200;2022-11-20T05:15:04;6.50;99.90
19363;DHT22;9817;50.80926400;5.16316200;2022-11-20T05:17:30;6.50;99.90
19363;DHT22;9817;50.80926400;5.16316200;2022-11-20T05:19:55;6.40;99.90
19363;DHT22;9817;50.80926400;5.16316200;2022-11-20T05:22:21;6.60;99.90
19363;DHT22;9817;50.80926400;5.16316200;2022-11-20T05:24:46;6.50;99.90
19363;DHT22;9817;50.80926400;5.16316200;2022-11-20T05:27:12;6.50;99.90
19363;DHT22;9817;50.80926400;5.16316200;2022-11-20T05:29:38;6.50;99.90
19363;DHT22;9817;50.80926400;5.16316200;2022-11-20T05:32:03;6.50;99.90
19363;DHT22;9817;50.80926400;5.16316200;2022-11-20T05:34:31;6.50;99.90
19363;DHT22;9817;50.80926400;5.16316200;2022-11-20T05:36:57;6.50;99.90
19363;DHT22;9817;50.80926400;5.16316200;2022-11-20T05:39:22;6.40;99.90
19363;DHT22;9817;50.80926400;5.16316200;2022-11-20T05:41:48;6.40;99.90
19363;DHT22;9817;50.80926400;5.16316200;2022-11-20T05:44:33;6.50;99.90
19363;DHT22;9817;50.80926400;5.16316200;2022-11-20T05:46:59;6.50;99.90
19363;DHT22;9817;50.80926400;5.16316200;2022-11-20T05:49:24;6.40;99.90
19363;DHT22;9817;50.80926400;5.16316200;2022-11-20T05:51:50;6.50;99.90
19363;DHT22;9817;50.80926400;5.16316200;2022-11-20T05:54:15;6.40;99.90
19363;DHT22;9817;50.80926400;5.16316200;2022-11-20T05:56:41;6.60;99.90
19363;DHT22;9817;50.80926400;5.16316200;2022-11-20T05:59:07;6.60;99.90
19363;DHT22;9817;50.80926400;5.16316200;2022-11-20T06:01:32;6.50;99.90
19363;DHT22;9817;50.80926400;5.16316200;2022-11-20T06:03:58;6.50;99.90
19363;DHT22;9817;50.80926400;5.16316200;2022-11-20T06:06:24;6.50;99.90
19363;DHT22;9817;50.80926400;5.16316200;2022-11-20T06:08:51;6.50;99.90
19363;DHT22;9817;50.80926400;5.16316200;2022-11-20T06:11:17;6.50;99.90
19363;DHT22;9817;50.80926400;5.16316200;2022-11-20T06:13:44;6.40;99.90
19363;DHT22;9817;50.80926400;5.16316200;2022-11-20T06:16:11;6.50;99.90
19363;DHT22;9817;50.80926400;5.16316200;2022-11-20T06:18:36;6.50;99.90
19363;DHT22;9817;50.80926400;5.16316200;2022-11-20T06:21:06;6.50;99.90
19363;DHT22;9817;50.80926400;5.16316200;2022-11-20T06:23:33;6.50;99.90
19363;DHT22;9817;50.80926400;5.16316200;2022-11-20T06:26:10;6.50;99.90
19363;DHT22;9817;50.80926400;5.16316200;2022-11-20T06:28:37;6.50;99.90
19363;DHT22;9817;50.80926400;5.16316200;2022-11-20T06:31:03;6.40;99.90
19363;DHT22;9817;50.80926400;5.16316200;2022-11-20T06:33:29;6.40;99.90
19363;DHT22;9817;50.80926400;5.16316200;2022-11-20T06:35:59;6.40;99.90
19363;DHT22;9817;50.80926400;5.16316200;2022-11-20T06:38:26;6.40;99.90
19363;DHT22;9817;50.80926400;5.16316200;2022-11-20T06:40:52;6.40;99.90
19363;DHT22;9817;50.80926400;5.16316200;2022-11-20T06:43:18;6.40;99.90
19363;DHT22;9817;50.80926400;5.16316200;2022-11-20T06:45:43;6.40;99.90
19363;DHT22;9817;50.80926400;5.16316200;2022-11-20T06:48:09;6.40;99.90
19363;DHT22;9817;50.80926400;5.16316200;2022-11-20T06:50:37;6.20;99.90
19363;DHT22;9817;50.80926400;5.16316200;2022-11-20T06:53:03;6.30;99.90
19363;DHT22;9817;50.80926400;5.16316200;2022-11-20T06:55:30;6.30;99.90
19363;DHT22;9817;50.80926400;5.16316200;2022-11-20T06:57:55;6.40;99.90
19363;DHT22;9817;50.80926400;5.16316200;2022-11-20T07:00:21;6.40;99.90
19363;DHT22;9817;50.80926400;5.16316200;2022-11-20T07:02:47;6.40;99.90
19363;DHT22;9817;50.80926400;5.16316200;2022-11-20T07:05:12;6.50;99.90
19363;DHT22;9817;50.80926400;5.16316200;2022-11-20T07:07:38;6.50;99.90
19363;DHT22;9817;50.80926400;5.16316200;2022-11-20T07:10:04;6.50;99.90
19363;DHT22;9817;50.80926400;5.16316200;2022-11-20T07:12:30;6.40;99.90
19363;DHT22;9817;50.80926400;5.16316200;2022-11-20T07:14:55;6.50;99.90
19363;DHT22;9817;50.80926400;5.16316200;2022-11-20T07:17:21;6.50;99.90
19363;DHT22;9817;50.80926400;5.16316200;2022-11-20T07:19:47;6.50;99.90
19363;DHT22;9817;50.80926400;5.16316200;2022-11-20T07:22:13;6.50;99.90
19363;DHT22;9817;50.80926400;5.16316200;2022-11-20T07:24:38;6.70;99.90
19363;DHT22;9817;50.80926400;5.16316200;2022-11-20T07:27:04;6.70;99.90
19363;DHT22;9817;50.80926400;5.16316200;2022-11-20T07:29:30;6.70;99.90
19363;DHT22;9817;50.80926400;5.16316200;2022-11-20T07:31:56;6.70;99.90
19363;DHT22;9817;50.80926400;5.16316200;2022-11-20T07:34:22;6.70;99.90
19363;DHT22;9817;50.80926400;5.16316200;2022-11-20T07:36:48;6.60;99.90
19363;DHT22;9817;50.80926400;5.16316200;2022-11-20T07:39:13;6.70;99.90
19363;DHT22;9817;50.80926400;5.16316200;2022-11-20T07:41:39;6.90;99.90
19363;DHT22;9817;50.80926400;5.16316200;2022-11-20T07:44:05;6.90;99.90
19363;DHT22;9817;50.80926400;5.16316200;2022-11-20T07:46:30;6.80;99.90
19363;DHT22;9817;50.80926400;5.16316200;2022-11-20T07:48:56;6.90;99.90
19363;DHT22;9817;50.80926400;5.16316200;2022-11-20T07:51:22;6.90;99.90
19363;DHT22;9817;50.80926400;5.16316200;2022-11-20T07:53:50;7.00;99.90
19363;DHT22;9817;50.80926400;5.16316200;2022-11-20T07:56:15;6.90;99.90
19363;DHT22;9817;50.80926400;5.16316200;2022-11-20T07:58:41;6.90;99.90
19363;DHT22;9817;50.80926400;5.16316200;2022-11-20T08:01:07;6.90;99.90
19363;DHT22;9817;50.80926400;5.16316200;2022-11-20T08:03:35;6.80;99.90
19363;DHT22;9817;50.80926400;5.16316200;2022-11-20T08:06:03;6.90;99.90
19363;DHT22;9817;50.80926400;5.16316200;2022-11-20T08:08:29;6.90;99.90
19363;DHT22;9817;50.80926400;5.16316200;2022-11-20T08:10:57;7.00;99.90
19363;DHT22;9817;50.80926400;5.16316200;2022-11-20T08:13:43;6.90;99.90
19363;DHT22;9817;50.80926400;5.16316200;2022-11-20T08:16:27;6.90;99.90
19363;DHT22;9817;50.80926400;5.16316200;2022-11-20T08:18:53;7.00;99.90
19363;DHT22;9817;50.80926400;5.16316200;2022-11-20T08:21:19;7.10;99.90
19363;DHT22;9817;50.80926400;5.16316200;2022-11-20T08:23:44;7.10;99.90
19363;DHT22;9817;50.80926400;5.16316200;2022-11-20T08:26:10;7.20;99.90
19363;DHT22;9817;50.80926400;5.16316200;2022-11-20T08:28:35;7.30;99.90
19363;DHT22;9817;50.80926400;5.16316200;2022-11-20T08:31:02;7.40;99.90
19363;DHT22;9817;50.80926400;5.16316200;2022-11-20T08:33:28;7.50;99.90
19363;DHT22;9817;50.80926400;5.16316200;2022-11-20T08:35:59;7.60;99.90
19363;DHT22;9817;50.80926400;5.16316200;2022-11-20T08:38:25;7.60;99.90
19363;DHT22;9817;50.80926400;5.16316200;2022-11-20T08:40:50;7.60;99.90
19363;DHT22;9817;50.80926400;5.16316200;2022-11-20T08:43:34;7.60;99.90
19363;DHT22;9817;50.80926400;5.16316200;2022-11-20T08:46:00;7.70;99.90
19363;DHT22;9817;50.80926400;5.16316200;2022-11-20T08:48:26;7.70;99.90
19363;DHT22;9817;50.80926400;5.16316200;2022-11-20T08:50:51;7.80;99.90
19363;DHT22;9817;50.80926400;5.16316200;2022-11-20T08:53:17;7.80;99.90
19363;DHT22;9817;50.80926400;5.16316200;2022-11-20T08:55:42;7.80;99.90
19363;DHT22;9817;50.80926400;5.16316200;2022-11-20T08:58:08;7.90;99.90
19363;DHT22;9817;50.80926400;5.16316200;2022-11-20T09:00:34;7.90;99.90
19363;DHT22;9817;50.80926400;5.16316200;2022-11-20T09:03:00;7.80;99.90
19363;DHT22;9817;50.80926400;5.16316200;2022-11-20T09:05:26;7.80;99.90
19363;DHT22;9817;50.80926400;5.16316200;2022-11-20T09:07:55;7.70;99.90
19363;DHT22;9817;50.80926400;5.16316200;2022-11-20T09:10:21;7.70;99.90
19363;DHT22;9817;50.80926400;5.16316200;2022-11-20T09:12:49;7.80;99.90
19363;DHT22;9817;50.80926400;5.16316200;2022-11-20T09:15:15;7.80;99.90
19363;DHT22;9817;50.80926400;5.16316200;2022-11-20T09:17:53;7.90;99.90
19363;DHT22;9817;50.80926400;5.16316200;2022-11-20T09:20:19;8.00;99.90
19363;DHT22;9817;50.80926400;5.16316200;2022-11-20T09:22:44;8.10;99.90
19363;DHT22;9817;50.80926400;5.16316200;2022-11-20T09:25:10;8.30;99.90
19363;DHT22;9817;50.80926400;5.16316200;2022-11-20T09:27:36;8.40;99.90
19363;DHT22;9817;50.80926400;5.16316200;2022-11-20T09:30:02;8.50;99.90
19363;DHT22;9817;50.80926400;5.16316200;2022-11-20T09:32:28;8.60;99.90
19363;DHT22;9817;50.80926400;5.16316200;2022-11-20T09:34:53;8.60;99.90
19363;DHT22;9817;50.80926400;5.16316200;2022-11-20T09:37:19;8.60;99.90
19363;DHT22;9817;50.80926400;5.16316200;2022-11-20T09:39:44;8.80;99.90
19363;DHT22;9817;50.80926400;5.16316200;2022-11-20T09:45:01;8.80;99.90
19363;DHT22;9817;50.80926400;5.16316200;2022-11-20T09:47:36;8.80;99.90
19363;DHT22;9817;50.80926400;5.16316200;2022-11-20T09:50:31;8.80;99.90
19363;DHT22;9817;50.80926400;5.16316200;2022-11-20T09:55:48;8.80;99.90
19363;DHT22;9817;50.80926400;5.16316200;2022-11-20T09:58:25;8.80;99.90
19363;DHT22;9817;50.80926400;5.16316200;2022-11-20T10:00:52;8.80;99.90
19363;DHT22;9817;50.80926400;5.16316200;2022-11-20T10:03:44;8.80;99.90
19363;DHT22;9817;50.80926400;5.16316200;2022-11-20T10:06:15;9.00;99.90
19363;DHT22;9817;50.80926400;5.16316200;2022-11-20T10:17:02;9.50;99.90
19363;DHT22;9817;50.80926400;5.16316200;2022-11-20T10:25:33;9.70;99.90
19363;DHT22;9817;50.80926400;5.16316200;2022-11-20T10:28:39;9.80;99.90
19363;DHT22;9817;50.80926400;5.16316200;2022-11-20T10:31:31;9.80;99.90
19363;DHT22;9817;50.80926400;5.16316200;2022-11-20T10:34:00;9.80;99.90
19363;DHT22;9817;50.80926400;5.16316200;2022-11-20T10:36:32;9.90;99.90
19363;DHT22;9817;50.80926400;5.16316200;2022-11-20T10:39:03;10.10;99.90
19363;DHT22;9817;50.80926400;5.16316200;2022-11-20T10:41:36;10.30;99.90
19363;DHT22;9817;50.80926400;5.16316200;2022-11-20T10:44:12;10.30;99.90
19363;DHT22;9817;50.80926400;5.16316200;2022-11-20T10:46:46;10.20;99.90
19363;DHT22;9817;50.80926400;5.16316200;2022-11-20T10:49:17;10.20;99.90
19363;DHT22;9817;50.80926400;5.16316200;2022-11-20T10:52:08;10.30;99.90
19363;DHT22;9817;50.80926400;5.16316200;2022-11-20T10:55:02;10.40;99.90
19363;DHT22;9817;50.80926400;5.16316200;2022-11-20T11:00:15;10.50;99.90
19363;DHT22;9817;50.80926400;5.16316200;2022-11-20T11:02:49;10.40;99.90
19363;DHT22;9817;50.80926400;5.16316200;2022-11-20T11:05:29;10.30;99.90
19363;DHT22;9817;50.80926400;5.16316200;2022-11-20T11:08:04;10.40;99.90
19363;DHT22;9817;50.80926400;5.16316200;2022-11-20T11:10:59;10.70;99.90
19363;DHT22;9817;50.80926400;5.16316200;2022-11-20T11:13:29;10.60;99.90
19363;DHT22;9817;50.80926400;5.16316200;2022-11-20T11:15:55;10.60;99.90
19363;DHT22;9817;50.80926400;5.16316200;2022-11-20T11:18:29;10.40;99.90
19363;DHT22;9817;50.80926400;5.16316200;2022-11-20T11:20:57;10.30;99.90
19363;DHT22;9817;50.80926400;5.16316200;2022-11-20T11:23:40;10.20;99.90
19363;DHT22;9817;50.80926400;5.16316200;2022-11-20T11:26:21;10.30;99.90
19363;DHT22;9817;50.80926400;5.16316200;2022-11-20T11:28:59;10.10;99.90
19363;DHT22;9817;50.80926400;5.16316200;2022-11-20T11:31:34;10.20;99.90
19363;DHT22;9817;50.80926400;5.16316200;2022-11-20T11:34:16;10.20;99.90
19363;DHT22;9817;50.80926400;5.16316200;2022-11-20T11:36:49;10.30;99.90
19363;DHT22;9817;50.80926400;5.16316200;2022-11-20T11:39:19;10.30;99.90
19363;DHT22;9817;50.80926400;5.16316200;2022-11-20T11:41:46;10.20;99.90
19363;DHT22;9817;50.80926400;5.16316200;2022-11-20T11:44:28;10.30;99.90
19363;DHT22;9817;50.80926400;5.16316200;2022-11-20T11:47:37;10.50;99.90
19363;DHT22;9817;50.80926400;5.16316200;2022-11-20T11:55:51;10.90;99.90
19363;DHT22;9817;50.80926400;5.16316200;2022-11-20T12:01:04;11.00;99.90
19363;DHT22;9817;50.80926400;5.16316200;2022-11-20T12:03:42;10.90;99.90
19363;DHT22;9817;50.80926400;5.16316200;2022-11-20T12:06:14;11.10;99.90
19363;DHT22;9817;50.80926400;5.16316200;2022-11-20T12:09:32;11.10;99.90
19363;DHT22;9817;50.80926400;5.16316200;2022-11-20T12:14:27;10.90;99.90
19363;DHT22;9817;50.80926400;5.16316200;2022-11-20T12:16:57;10.80;99.90
19363;DHT22;9817;50.80926400;5.16316200;2022-11-20T12:19:23;10.80;99.90
19363;DHT22;9817;50.80926400;5.16316200;2022-11-20T12:24:55;10.70;99.90
19363;DHT22;9817;50.80926400;5.16316200;2022-11-20T12:30:16;10.60;99.90
19363;DHT22;9817;50.80926400;5.16316200;2022-11-20T12:38:52;10.70;99.90
19363;DHT22;9817;50.80926400;5.16316200;2022-11-20T12:53:04;10.20;99.90
19363;DHT22;9817;50.80926400;5.16316200;2022-11-20T13:06:59;10.20;99.90
19363;DHT22;9817;50.80926400;5.16316200;2022-11-20T13:09:27;10.10;99.90
19363;DHT22;9817;50.80926400;5.16316200;2022-11-20T13:12:19;9.90;99.90
19363;DHT22;9817;50.80926400;5.16316200;2022-11-20T13:17:53;9.50;99.90
19363;DHT22;9817;50.80926400;5.16316200;2022-11-20T13:20:19;9.50;99.90
19363;DHT22;9817;50.80926400;5.16316200;2022-11-20T13:22:50;9.60;99.90
19363;DHT22;9817;50.80926400;5.16316200;2022-11-20T13:25:32;9.50;99.90
19363;DHT22;9817;50.80926400;5.16316200;2022-11-20T13:28:00;9.30;99.90
19363;DHT22;9817;50.80926400;5.16316200;2022-11-20T13:30:28;9.30;99.90
19363;DHT22;9817;50.80926400;5.16316200;2022-11-20T13:35:32;9.50;99.90
19363;DHT22;9817;50.80926400;5.16316200;2022-11-20T13:38:09;9.60;99.90
19363;DHT22;9817;50.80926400;5.16316200;2022-11-20T13:40:37;9.40;99.90
19363;DHT22;9817;50.80926400;5.16316200;2022-11-20T13:46:01;9.30;99.90
19363;DHT22;9817;50.80926400;5.16316200;2022-11-20T13:48:53;9.30;99.90
19363;DHT22;9817;50.80926400;5.16316200;2022-11-20T14:02:25;9.30;99.90
19363;DHT22;9817;50.80926400;5.16316200;2022-11-20T14:04:53;9.30;99.90
19363;DHT22;9817;50.80926400;5.16316200;2022-11-20T14:07:23;9.30;99.90
19363;DHT22;9817;50.80926400;5.16316200;2022-11-20T14:09:55;9.50;99.90
19363;DHT22;9817;50.80926400;5.16316200;2022-11-20T14:12:27;9.30;99.90
19363;DHT22;9817;50.80926400;5.16316200;2022-11-20T14:14:54;9.30;99.90
19363;DHT22;9817;50.80926400;5.16316200;2022-11-20T14:17:32;9.20;99.90
19363;DHT22;9817;50.80926400;5.16316200;2022-11-20T14:20:05;9.20;99.90
19363;DHT22;9817;50.80926400;5.16316200;2022-11-20T14:22:31;9.20;99.90
19363;DHT22;9817;50.80926400;5.16316200;2022-11-20T14:25:07;9.20;99.90
19363;DHT22;9817;50.80926400;5.16316200;2022-11-20T14:27:53;9.20;99.90
19363;DHT22;9817;50.80926400;5.16316200;2022-11-20T14:30:26;9.30;99.90
19363;DHT22;9817;50.80926400;5.16316200;2022-11-20T14:32:57;9.10;99.90
19363;DHT22;9817;50.80926400;5.16316200;2022-11-20T14:35:28;9.00;99.90
19363;DHT22;9817;50.80926400;5.16316200;2022-11-20T14:37:55;9.00;99.90
19363;DHT22;9817;50.80926400;5.16316200;2022-11-20T14:40:33;9.00;99.90
19363;DHT22;9817;50.80926400;5.16316200;2022-11-20T14:43:18;8.90;99.90
19363;DHT22;9817;50.80926400;5.16316200;2022-11-20T14:45:48;8.90;99.90
19363;DHT22;9817;50.80926400;5.16316200;2022-11-20T14:48:15;8.90;99.90
19363;DHT22;9817;50.80926400;5.16316200;2022-11-20T14:50:41;9.00;99.90
19363;DHT22;9817;50.80926400;5.16316200;2022-11-20T14:53:06;9.00;99.90
19363;DHT22;9817;50.80926400;5.16316200;2022-11-20T14:55:37;9.20;99.90
19363;DHT22;9817;50.80926400;5.16316200;2022-11-20T14:58:21;9.30;99.90
19363;DHT22;9817;50.80926400;5.16316200;2022-11-20T15:01:01;9.30;99.90
19363;DHT22;9817;50.80926400;5.16316200;2022-11-20T15:03:38;9.20;99.90
19363;DHT22;9817;50.80926400;5.16316200;2022-11-20T15:06:05;9.20;99.90
19363;DHT22;9817;50.80926400;5.16316200;2022-11-20T15:08:32;9.10;99.90
19363;DHT22;9817;50.80926400;5.16316200;2022-11-20T15:10:57;9.10;99.90
19363;DHT22;9817;50.80926400;5.16316200;2022-11-20T15:13:31;9.10;99.90
19363;DHT22;9817;50.80926400;5.16316200;2022-11-20T15:15:59;9.30;99.90
19363;DHT22;9817;50.80926400;5.16316200;2022-11-20T15:18:32;9.10;99.90
19363;DHT22;9817;50.80926400;5.16316200;2022-11-20T15:21:01;9.00;99.90
19363;DHT22;9817;50.80926400;5.16316200;2022-11-20T15:23:27;9.10;99.90
19363;DHT22;9817;50.80926400;5.16316200;2022-11-20T15:25:54;9.10;99.90
19363;DHT22;9817;50.80926400;5.16316200;2022-11-20T15:31:04;8.90;99.90
19363;DHT22;9817;50.80926400;5.16316200;2022-11-20T15:33:31;9.00;99.90
19363;DHT22;9817;50.80926400;5.16316200;2022-11-20T15:35:57;9.10;99.90
19363;DHT22;9817;50.80926400;5.16316200;2022-11-20T15:38:23;9.10;99.90
19363;DHT22;9817;50.80926400;5.16316200;2022-11-20T15:40:48;9.00;99.90